Time;durP1;ratioP1;P1;durP2;ratioP2;P2;SDS_P1;SDS_P2;PMS_P1;PMS_P2;Temp;Humidity;BMP_temperature;BMP_pressure;BME280_temperature;BME280_humidity;BME280_pressure;Samples;Min_cycle;Max_cycle;Signal;HPM_P1;HPM_P2
2022/11/09 00:00:09;;;;;;;0.10;0.10;;;12.30;99.90;;;;;;5044246;28;20045;-66
2022/11/09 00:02:34;;;;;;;0.25;0.25;;;12.30;99.90;;;;;;5031485;28;20047;-65
2022/11/09 00:05:01;;;;;;;0.10;0.10;;;12.30;99.90;;;;;;5044828;28;20052;-65
2022/11/09 00:07:29;;;;;;;0.10;0.10;;;12.30;99.90;;;;;;5045099;28;20128;-65
2022/11/09 00:09:55;;;;;;;0.10;0.10;;;12.30;99.90;;;;;;5043038;28;20485;-66
2022/11/09 00:12:20;;;;;;;0.00;0.00;;;12.30;99.90;;;;;;5049136;28;20054;-66
2022/11/09 00:14:46;;;;;;;0.10;0.10;;;12.30;99.90;;;;;;5051984;28;20139;-65
2022/11/09 00:17:12;;;;;;;0.10;0.10;;;12.30;99.90;;;;;;5047008;28;20041;-68
2022/11/09 00:19:38;;;;;;;1.02;0.35;;;12.30;99.90;;;;;;5051855;28;20144;-65
2022/11/09 00:22:03;;;;;;;0.10;0.10;;;12.30;99.90;;;;;;5061715;28;20048;-65
2022/11/09 00:24:29;;;;;;;0.10;0.10;;;12.30;99.90;;;;;;5040452;28;20036;-64
2022/11/09 00:26:55;;;;;;;0.17;0.17;;;12.30;99.90;;;;;;5053291;28;20044;-65
2022/11/09 00:29:20;;;;;;;0.22;0.22;;;12.30;99.90;;;;;;5056381;28;20036;-66
2022/11/09 00:31:47;;;;;;;0.10;0.10;;;12.20;99.90;;;;;;5064049;28;20057;-66
2022/11/09 00:34:13;;;;;;;0.10;0.10;;;12.20;99.90;;;;;;5053014;28;20059;-66
2022/11/09 00:36:39;;;;;;;0.10;0.10;;;12.10;99.90;;;;;;5053708;28;20391;-65
2022/11/09 00:39:07;;;;;;;0.70;0.63;;;12.10;99.90;;;;;;5031246;28;20044;-66
2022/11/09 00:41:32;;;;;;;0.65;0.65;;;12.10;99.90;;;;;;5044662;28;20147;-65
2022/11/09 00:43:58;;;;;;;0.00;0.00;;;12.10;99.90;;;;;;5054493;28;21184;-66
2022/11/09 00:46:24;;;;;;;0.10;0.10;;;12.10;99.90;;;;;;5054921;28;20068;-65
2022/11/09 00:48:50;;;;;;;0.10;0.10;;;12.10;99.90;;;;;;5059029;28;20506;-65
2022/11/09 00:51:15;;;;;;;0.10;0.10;;;12.10;99.90;;;;;;5069025;28;20040;-66
2022/11/09 00:53:42;;;;;;;0.28;0.28;;;12.10;99.90;;;;;;5060235;28;20036;-65
2022/11/09 00:56:11;;;;;;;0.05;0.05;;;12.20;99.90;;;;;;5048284;28;20103;-65
2022/11/09 00:58:38;;;;;;;0.10;0.10;;;12.20;99.90;;;;;;5048740;28;20075;-65
2022/11/09 01:01:09;;;;;;;0.10;0.10;;;12.20;99.90;;;;;;5061054;28;20124;-65
2022/11/09 01:03:36;;;;;;;0.10;0.10;;;12.20;99.90;;;;;;5051443;28;20071;-67
2022/11/09 01:06:02;;;;;;;0.10;0.10;;;12.20;99.90;;;;;;5043862;28;20080;-65
2022/11/09 01:08:28;;;;;;;0.10;0.10;;;12.30;99.90;;;;;;5067690;28;20123;-65
2022/11/09 01:10:54;;;;;;;0.10;0.10;;;12.30;99.90;;;;;;5060299;28;20196;-65
2022/11/09 01:13:20;;;;;;;0.10;0.10;;;12.30;99.90;;;;;;5063409;28;20067;-65
2022/11/09 01:15:52;;;;;;;0.20;0.20;;;12.30;99.90;;;;;;5052991;28;20444;-65
2022/11/09 01:18:19;;;;;;;0.10;0.10;;;12.30;99.90;;;;;;5043591;28;20062;-65
2022/11/09 01:20:47;;;;;;;0.10;0.10;;;12.30;99.90;;;;;;5071613;28;20047;-65
2022/11/09 01:23:16;;;;;;;0.10;0.10;;;12.40;99.90;;;;;;5063854;28;20049;-65
2022/11/09 01:25:42;;;;;;;0.10;0.10;;;12.40;99.90;;;;;;5052382;28;20032;-65
2022/11/09 01:28:09;;;;;;;0.10;0.10;;;12.40;99.90;;;;;;5066560;28;20049;-65
2022/11/09 01:30:36;;;;;;;0.10;0.10;;;12.40;99.90;;;;;;5066412;28;20079;-65
2022/11/09 01:33:03;;;;;;;0.10;0.10;;;12.40;99.90;;;;;;5059691;28;20048;-65
2022/11/09 01:35:32;;;;;;;0.17;0.17;;;12.40;99.90;;;;;;5069461;28;20369;-64
2022/11/09 01:37:58;;;;;;;0.00;0.00;;;12.40;99.90;;;;;;5055089;28;20037;-65
2022/11/09 01:40:24;;;;;;;0.10;0.10;;;12.30;99.90;;;;;;5053457;28;20538;-65
2022/11/09 01:42:49;;;;;;;0.10;0.10;;;12.30;99.90;;;;;;5053494;28;20486;-65
2022/11/09 01:45:22;;;;;;;0.22;0.22;;;12.30;99.90;;;;;;5058768;28;20457;-66
2022/11/09 01:47:57;;;;;;;0.05;0.05;;;12.30;99.90;;;;;;5054317;28;20055;-65
2022/11/09 01:50:31;;;;;;;0.10;0.10;;;12.30;99.90;;;;;;5058986;28;20099;-65
2022/11/09 01:52:58;;;;;;;;;;;12.30;99.90;;;;;;5060210;28;20384;-65
2022/11/09 01:55:24;;;;;;;0.08;0.08;;;12.30;99.90;;;;;;5064583;28;19927;-65
2022/11/09 01:57:59;;;;;;;0.10;0.10;;;12.30;99.90;;;;;;5059682;28;20457;-65
2022/11/09 02:00:25;;;;;;;0.10;0.10;;;12.30;99.90;;;;;;5057902;28;20044;-64
2022/11/09 02:03:08;;;;;;;0.13;0.13;;;12.30;99.90;;;;;;5062180;28;20434;-65
2022/11/09 02:05:36;;;;;;;0.25;0.25;;;12.30;99.90;;;;;;5064093;28;20083;-65
2022/11/09 02:08:05;;;;;;;0.10;0.10;;;12.30;99.90;;;;;;5066965;28;20044;-65
2022/11/09 02:11:09;;;;;;;0.10;0.10;;;12.20;99.90;;;;;;5054854;28;20064;-65
2022/11/09 02:13:38;;;;;;;0.10;0.10;;;12.20;99.90;;;;;;4968958;28;20039;-65
2022/11/09 02:16:05;;;;;;;0.20;0.20;;;12.20;99.90;;;;;;5052369;28;20052;-65
2022/11/09 02:18:32;;;;;;;0.65;0.65;;;12.20;99.90;;;;;;5061998;28;20050;-65
2022/11/09 02:20:58;;;;;;;0.50;0.50;;;12.10;99.90;;;;;;5058046;28;20044;-64
2022/11/09 02:23:28;;;;;;;0.63;0.40;;;12.20;99.90;;;;;;5056701;28;20120;-64
2022/11/09 02:26:02;;;;;;;0.47;0.32;;;12.20;99.90;;;;;;5054876;28;20090;-65
2022/11/09 02:28:29;;;;;;;0.28;0.28;;;12.20;99.90;;;;;;5056323;28;20499;-65
2022/11/09 02:30:56;;;;;;;0.10;0.10;;;12.20;99.90;;;;;;5061936;28;20061;-65
2022/11/09 02:33:23;;;;;;;0.05;0.05;;;12.20;99.90;;;;;;5058941;28;20044;-65
2022/11/09 02:35:48;;;;;;;0.00;0.00;;;12.20;99.90;;;;;;5053108;28;20388;-65
2022/11/09 02:38:14;;;;;;;0.10;0.10;;;12.20;99.90;;;;;;5060611;28;20051;-65
2022/11/09 02:40:44;;;;;;;0.10;0.10;;;12.20;99.90;;;;;;5066176;28;20033;-65
2022/11/09 02:43:13;;;;;;;0.47;0.47;;;12.20;99.90;;;;;;5058499;28;20037;-65
2022/11/09 02:45:39;;;;;;;0.52;0.52;;;12.20;99.90;;;;;;5056839;28;20116;-66
2022/11/09 02:48:05;;;;;;;0.38;0.38;;;12.20;99.90;;;;;;5069679;28;20610;-65
2022/11/09 02:50:31;;;;;;;0.13;0.13;;;12.20;99.90;;;;;;5040599;28;20045;-65
2022/11/09 02:52:57;;;;;;;0.82;0.80;;;12.20;99.90;;;;;;5052048;28;20381;-66
2022/11/09 02:55:22;;;;;;;0.10;0.10;;;12.20;99.90;;;;;;5054529;28;20037;-65
2022/11/09 02:57:48;;;;;;;0.10;0.10;;;12.20;99.90;;;;;;5069313;28;20472;-65
2022/11/09 03:00:14;;;;;;;0.43;0.43;;;12.20;99.90;;;;;;5071191;28;20052;-65
2022/11/09 03:02:40;;;;;;;0.10;0.10;;;12.20;99.90;;;;;;5057657;28;20040;-65
2022/11/09 03:05:06;;;;;;;15.07;1.17;;;12.20;99.90;;;;;;5067075;28;20047;-65
2022/11/09 03:07:32;;;;;;;0.10;0.10;;;12.10;99.90;;;;;;5061480;28;20037;-65
2022/11/09 03:09:58;;;;;;;0.63;0.15;;;12.10;99.90;;;;;;5037097;28;20404;-65
2022/11/09 03:12:29;;;;;;;0.35;0.35;;;12.10;99.90;;;;;;5062936;28;20037;-64
2022/11/09 03:15:00;;;;;;;0.13;0.13;;;12.10;99.90;;;;;;5039026;28;20040;-65
2022/11/09 03:17:26;;;;;;;0.00;0.00;;;12.10;99.90;;;;;;5071043;28;20044;-65
2022/11/09 03:19:53;;;;;;;0.10;0.10;;;12.10;99.90;;;;;;5065070;28;20041;-64
2022/11/09 03:22:19;;;;;;;0.00;0.00;;;12.10;99.90;;;;;;5050498;28;20044;-64
2022/11/09 03:24:45;;;;;;;1.13;1.08;;;12.20;99.90;;;;;;5060040;28;20045;-64
2022/11/09 03:27:11;;;;;;;0.38;0.38;;;12.10;99.90;;;;;;5052022;28;20057;-64
2022/11/09 03:29:37;;;;;;;0.60;0.60;;;12.20;99.90;;;;;;5054001;28;22192;-65
2022/11/09 03:32:03;;;;;;;0.10;0.10;;;12.20;99.90;;;;;;5052498;28;20496;-65
2022/11/09 03:34:29;;;;;;;0.10;0.10;;;12.20;99.90;;;;;;5053895;28;20118;-64
2022/11/09 03:36:55;;;;;;;0.28;0.28;;;12.20;99.90;;;;;;5068975;28;20488;-64
2022/11/09 03:39:20;;;;;;;3.53;1.67;;;12.20;99.90;;;;;;5068532;28;20063;-67
2022/11/09 03:41:46;;;;;;;0.47;0.47;;;12.20;99.90;;;;;;5063440;28;20072;-66
2022/11/09 03:44:12;;;;;;;0.55;0.30;;;12.20;99.90;;;;;;5057312;28;20059;-66
2022/11/09 03:46:37;;;;;;;0.20;0.20;;;12.20;99.90;;;;;;5054048;28;20052;-66
2022/11/09 03:49:03;;;;;;;1.00;0.90;;;12.20;99.90;;;;;;5055058;28;20045;-66
2022/11/09 03:51:29;;;;;;;0.20;0.20;;;12.20;99.90;;;;;;5051567;28;20158;-66
2022/11/09 03:53:55;;;;;;;0.10;0.10;;;12.20;99.90;;;;;;5054275;28;20116;-67
2022/11/09 03:56:20;;;;;;;0.10;0.10;;;12.20;99.90;;;;;;5069593;28;20059;-67
2022/11/09 03:58:46;;;;;;;0.75;0.68;;;12.20;99.90;;;;;;5050833;28;20032;-66
2022/11/09 04:01:12;;;;;;;1.75;0.55;;;12.20;99.90;;;;;;5057405;28;20051;-67
2022/11/09 04:03:38;;;;;;;0.00;0.00;;;12.20;99.90;;;;;;5056000;28;20458;-66
2022/11/09 04:06:04;;;;;;;0.00;0.00;;;12.20;99.90;;;;;;5060354;28;20551;-66
2022/11/09 04:08:30;;;;;;;0.00;0.00;;;12.20;99.90;;;;;;5069853;28;20044;-67
2022/11/09 04:10:55;;;;;;;1.17;1.08;;;12.20;99.90;;;;;;5063110;28;20045;-66
2022/11/09 04:13:21;;;;;;;0.10;0.10;;;12.20;99.90;;;;;;5063972;28;20044;-66
2022/11/09 04:15:47;;;;;;;0.10;0.10;;;12.30;99.90;;;;;;5061730;28;20076;-66
2022/11/09 04:18:15;;;;;;;0.10;0.10;;;12.30;99.90;;;;;;5063579;28;20048;-65
2022/11/09 04:20:41;;;;;;;0.52;0.52;;;12.30;99.90;;;;;;5061426;28;20051;-66
2022/11/09 04:23:10;;;;;;;0.30;0.30;;;12.30;99.90;;;;;;5056238;28;20056;-65
2022/11/09 04:25:38;;;;;;;0.10;0.10;;;12.30;99.90;;;;;;5058154;28;20041;-66
2022/11/09 04:28:05;;;;;;;1.25;1.05;;;12.30;99.90;;;;;;5050278;28;20621;-66
2022/11/09 04:30:32;;;;;;;1.45;0.82;;;12.40;99.90;;;;;;5051911;28;20057;-65
2022/11/09 04:32:59;;;;;;;0.10;0.10;;;12.30;99.90;;;;;;5066245;28;20040;-65
2022/11/09 04:35:26;;;;;;;0.63;0.63;;;12.30;99.90;;;;;;5064020;28;20488;-65
2022/11/09 04:37:56;;;;;;;0.45;0.45;;;12.20;99.90;;;;;;5033648;28;20045;-65
2022/11/09 04:40:24;;;;;;;0.10;0.10;;;12.20;99.90;;;;;;5035701;28;20068;-66
2022/11/09 04:42:50;;;;;;;0.10;0.10;;;12.20;99.90;;;;;;5039036;28;20044;-65
2022/11/09 04:45:15;;;;;;;0.20;0.20;;;12.20;99.90;;;;;;5069688;28;20055;-65
2022/11/09 04:47:44;;;;;;;0.32;0.32;;;12.20;99.90;;;;;;5063037;28;20032;-65
2022/11/09 04:50:09;;;;;;;0.55;0.55;;;12.20;99.90;;;;;;5055942;28;20072;-65
2022/11/09 04:52:35;;;;;;;0.10;0.10;;;12.20;99.90;;;;;;5069271;28;20041;-65
2022/11/09 04:55:01;;;;;;;0.10;0.10;;;12.20;99.90;;;;;;5069151;28;20040;-66
2022/11/09 04:57:27;;;;;;;0.10;0.10;;;12.20;99.90;;;;;;5057824;28;20138;-65
2022/11/09 04:59:52;;;;;;;0.03;0.03;;;12.20;99.90;;;;;;5055428;28;20064;-65
2022/11/09 05:02:18;;;;;;;0.10;0.10;;;12.30;99.90;;;;;;5055070;28;20032;-66
2022/11/09 05:04:43;;;;;;;0.10;0.10;;;12.30;99.90;;;;;;5062717;28;20129;-65
2022/11/09 05:07:09;;;;;;;0.10;0.10;;;12.30;99.90;;;;;;5068939;28;20052;-65
2022/11/09 05:09:35;;;;;;;0.10;0.10;;;12.30;99.90;;;;;;5062517;28;20434;-64
2022/11/09 05:12:01;;;;;;;0.10;0.10;;;12.30;99.90;;;;;;5060402;28;20048;-64
2022/11/09 05:14:26;;;;;;;0.28;0.28;;;12.30;99.90;;;;;;5058680;28;20056;-64
2022/11/09 05:16:52;;;;;;;0.10;0.10;;;12.20;99.90;;;;;;5053229;28;20121;-64
2022/11/09 05:19:18;;;;;;;0.10;0.10;;;12.20;99.90;;;;;;5057974;28;20396;-64
2022/11/09 05:21:43;;;;;;;6.80;1.20;;;12.20;99.90;;;;;;5059176;28;20124;-64
2022/11/09 05:24:09;;;;;;;0.10;0.10;;;12.10;99.90;;;;;;5053747;28;20119;-64
2022/11/09 05:26:37;;;;;;;0.10;0.10;;;12.10;99.90;;;;;;5050917;28;20077;-64
2022/11/09 05:29:08;;;;;;;0.10;0.10;;;12.10;99.90;;;;;;5043707;28;20127;-64
2022/11/09 05:31:35;;;;;;;1.88;1.77;;;12.00;99.90;;;;;;5053659;28;20056;-64
2022/11/09 05:34:01;;;;;;;2.75;2.58;;;12.00;99.90;;;;;;5047594;28;20049;-64
2022/11/09 05:36:28;;;;;;;1.52;1.00;;;12.00;99.90;;;;;;5049441;28;20063;-64
2022/11/09 05:38:54;;;;;;;0.70;0.70;;;12.00;99.90;;;;;;5039690;28;20047;-64
2022/11/09 05:41:20;;;;;;;1.88;0.93;;;12.00;99.90;;;;;;5046736;28;20053;-63
2022/11/09 05:43:46;;;;;;;0.10;0.10;;;12.00;99.90;;;;;;5051713;28;20095;-64
2022/11/09 05:46:13;;;;;;;0.73;0.65;;;11.90;99.90;;;;;;5047694;28;20052;-63
2022/11/09 05:48:39;;;;;;;0.10;0.10;;;11.90;99.90;;;;;;5056822;28;20052;-64
2022/11/09 05:51:07;;;;;;;0.10;0.10;;;11.90;99.90;;;;;;5059528;28;20033;-64
2022/11/09 05:53:33;;;;;;;0.13;0.13;;;11.90;99.90;;;;;;5049204;28;20077;-64
2022/11/09 05:56:07;;;;;;;0.10;0.10;;;11.90;99.90;;;;;;5039300;28;20079;-63
2022/11/09 05:58:36;;;;;;;0.15;0.15;;;11.80;99.90;;;;;;5050647;28;20052;-64
2022/11/09 06:01:10;;;;;;;0.10;0.10;;;11.80;99.90;;;;;;5058912;28;20134;-64
2022/11/09 06:03:36;;;;;;;0.40;0.40;;;11.80;99.90;;;;;;5062257;28;20040;-63
2022/11/09 06:06:04;;;;;;;0.10;0.10;;;11.90;99.90;;;;;;5056249;28;20051;-64
2022/11/09 06:08:30;;;;;;;0.10;0.10;;;11.80;99.90;;;;;;5057597;28;20067;-64
2022/11/09 06:11:01;;;;;;;0.10;0.10;;;11.80;99.90;;;;;;5064890;28;20532;-64
2022/11/09 06:13:27;;;;;;;13.15;0.90;;;11.80;99.90;;;;;;5058721;28;20403;-64
2022/11/09 06:15:58;;;;;;;0.10;0.10;;;11.80;99.90;;;;;;5071416;28;20067;-64
2022/11/09 06:18:26;;;;;;;0.32;0.32;;;11.80;99.90;;;;;;5072493;28;20040;-64
2022/11/09 06:20:56;;;;;;;1.48;0.73;;;11.80;99.90;;;;;;5050251;28;20040;-64
2022/11/09 06:23:24;;;;;;;0.10;0.10;;;11.80;99.90;;;;;;5056905;28;20055;-64
2022/11/09 06:26:00;;;;;;;0.10;0.10;;;11.80;99.90;;;;;;5054448;28;20055;-64
2022/11/09 06:28:26;;;;;;;0.10;0.10;;;11.80;99.90;;;;;;5035676;28;20049;-64
2022/11/09 06:30:52;;;;;;;0.10;0.10;;;11.70;99.90;;;;;;5049689;28;20048;-64
2022/11/09 06:33:18;;;;;;;0.10;0.10;;;11.70;99.90;;;;;;5058947;28;20149;-66
2022/11/09 06:35:43;;;;;;;0.47;0.47;;;11.70;99.90;;;;;;5050215;28;20044;-64
2022/11/09 06:38:12;;;;;;;0.10;0.10;;;11.70;99.90;;;;;;5056405;28;20037;-64
2022/11/09 06:40:38;;;;;;;0.10;0.10;;;11.60;99.90;;;;;;5058230;28;20098;-64
2022/11/09 06:43:04;;;;;;;0.55;0.55;;;11.60;99.90;;;;;;5052618;28;20040;-63
2022/11/09 06:45:30;;;;;;;0.10;0.10;;;11.70;99.90;;;;;;5041921;28;20041;-64
2022/11/09 06:47:57;;;;;;;0.45;0.45;;;11.70;99.90;;;;;;5067686;28;20041;-64
2022/11/09 06:50:25;;;;;;;0.10;0.10;;;11.60;99.90;;;;;;5054516;28;20053;-64
2022/11/09 06:52:58;;;;;;;0.10;0.10;;;11.60;99.90;;;;;;5071160;28;20071;-64
2022/11/09 06:55:26;;;;;;;0.03;0.03;;;11.60;99.90;;;;;;5070031;28;20058;-64
2022/11/09 06:57:52;;;;;;;0.17;0.17;;;11.60;99.90;;;;;;5053580;28;20055;-64
2022/11/09 07:00:18;;;;;;;0.08;0.08;;;11.60;99.90;;;;;;5064019;28;20060;-64
2022/11/09 07:02:44;;;;;;;1.40;1.30;;;11.60;99.90;;;;;;5070344;28;20048;-64
2022/11/09 07:05:10;;;;;;;0.10;0.10;;;11.50;99.90;;;;;;5068890;28;20395;-64
2022/11/09 07:07:35;;;;;;;0.40;0.40;;;11.50;99.90;;;;;;5052371;28;20063;-64
2022/11/09 07:10:01;;;;;;;0.10;0.10;;;11.50;99.90;;;;;;5061117;28;20040;-65
2022/11/09 07:12:27;;;;;;;0.30;0.30;;;11.50;99.90;;;;;;5062117;28;20460;-64
2022/11/09 07:14:53;;;;;;;0.20;0.20;;;11.50;99.90;;;;;;5051115;28;20044;-64
2022/11/09 07:17:18;;;;;;;0.10;0.10;;;11.50;99.90;;;;;;5050281;28;20168;-64
2022/11/09 07:19:44;;;;;;;1.10;0.68;;;11.50;99.90;;;;;;5051942;28;20500;-65
2022/11/09 07:22:10;;;;;;;0.10;0.10;;;11.40;99.90;;;;;;5055038;28;20041;-64
2022/11/09 07:24:36;;;;;;;0.10;0.10;;;11.50;99.90;;;;;;5061187;28;20040;-64
2022/11/09 07:27:01;;;;;;;0.10;0.10;;;11.50;99.90;;;;;;5062647;28;20048;-65
2022/11/09 07:29:27;;;;;;;0.70;0.65;;;11.50;99.90;;;;;;5050468;28;20045;-64
2022/11/09 07:31:52;;;;;;;0.20;0.20;;;11.50;99.90;;;;;;5064239;28;21586;-64
2022/11/09 07:34:18;;;;;;;0.10;0.10;;;11.50;99.90;;;;;;5059346;28;20121;-64
2022/11/09 07:36:44;;;;;;;0.00;0.00;;;11.50;99.90;;;;;;5053809;28;20397;-65
2022/11/09 07:39:09;;;;;;;0.63;0.63;;;11.60;99.90;;;;;;5056102;28;20040;-65
2022/11/09 07:41:36;;;;;;;0.05;0.05;;;11.60;99.90;;;;;;5051227;28;20059;-64
2022/11/09 07:44:02;;;;;;;0.00;0.00;;;11.70;99.90;;;;;;5050792;28;20053;-64
2022/11/09 07:46:28;;;;;;;0.20;0.20;;;11.70;99.90;;;;;;5056666;28;20376;-65
2022/11/09 07:48:53;;;;;;;0.10;0.10;;;11.80;99.90;;;;;;5059040;28;20044;-64
2022/11/09 07:51:19;;;;;;;0.00;0.00;;;11.80;99.90;;;;;;5062757;28;20124;-64
2022/11/09 07:53:45;;;;;;;0.13;0.13;;;11.90;99.90;;;;;;5056496;28;20048;-64
2022/11/09 07:56:11;;;;;;;0.10;0.10;;;11.90;99.90;;;;;;5046346;28;20036;-64
2022/11/09 07:58:36;;;;;;;0.75;0.57;;;12.00;99.90;;;;;;5071550;28;20052;-64
2022/11/09 08:01:09;;;;;;;0.10;0.10;;;12.00;99.90;;;;;;5067046;28;20094;-64
2022/11/09 08:03:35;;;;;;;0.45;0.45;;;12.00;99.90;;;;;;5061421;28;20061;-64
2022/11/09 08:06:01;;;;;;;0.85;0.85;;;12.10;99.90;;;;;;5050879;28;20044;-64
2022/11/09 08:08:26;;;;;;;1.73;1.63;;;12.10;99.90;;;;;;5050123;28;20128;-64
2022/11/09 08:10:54;;;;;;;0.00;0.00;;;12.20;99.90;;;;;;5049563;28;20052;-64
2022/11/09 08:13:20;;;;;;;0.20;0.20;;;12.20;99.90;;;;;;5041947;28;20094;-64
2022/11/09 08:15:46;;;;;;;0.88;0.40;;;12.30;99.90;;;;;;5050424;28;20041;-64
2022/11/09 08:18:18;;;;;;;2.20;0.65;;;12.40;99.90;;;;;;5050076;28;20048;-64
2022/11/09 08:20:45;;;;;;;0.40;0.40;;;12.40;99.90;;;;;;5059942;28;20071;-64
2022/11/09 08:23:15;;;;;;;3.70;2.58;;;12.40;99.90;;;;;;5070439;28;20076;-63
2022/11/09 08:25:41;;;;;;;0.10;0.10;;;12.40;99.90;;;;;;5056999;28;20542;-64
2022/11/09 08:28:08;;;;;;;0.17;0.17;;;12.40;99.90;;;;;;5063703;28;20388;-65
2022/11/09 08:30:34;;;;;;;0.28;0.28;;;12.40;99.90;;;;;;5054739;28;20526;-65
2022/11/09 08:33:01;;;;;;;1.27;0.75;;;12.40;99.90;;;;;;5067076;28;20101;-65
2022/11/09 08:35:28;;;;;;;0.10;0.10;;;12.40;99.90;;;;;;5054831;28;20071;-64
2022/11/09 08:37:54;;;;;;;0.32;0.32;;;12.40;99.90;;;;;;5071196;28;20055;-64
2022/11/09 08:40:22;;;;;;;0.10;0.10;;;12.30;99.90;;;;;;5069066;28;20045;-64
2022/11/09 08:42:49;;;;;;;0.00;0.00;;;12.40;99.90;;;;;;5059058;28;20086;-65
2022/11/09 08:45:15;;;;;;;0.20;0.20;;;12.40;99.90;;;;;;5050720;28;20177;-65
2022/11/09 08:47:41;;;;;;;0.45;0.45;;;12.40;99.90;;;;;;5066966;28;20121;-66
2022/11/09 08:50:08;;;;;;;0.50;0.47;;;12.50;99.90;;;;;;5049782;28;20075;-67
2022/11/09 08:52:33;;;;;;;3.53;1.17;;;12.50;99.90;;;;;;5070741;28;20479;-64
2022/11/09 08:54:59;;;;;;;5.78;2.38;;;12.60;99.90;;;;;;5069397;28;20078;-65
2022/11/09 08:57:25;;;;;;;0.10;0.10;;;12.60;99.90;;;;;;5052144;28;20132;-65
2022/11/09 08:59:51;;;;;;;0.00;0.00;;;12.50;99.90;;;;;;5060409;28;20139;-64
2022/11/09 09:02:16;;;;;;;0.52;0.52;;;12.60;99.90;;;;;;5064022;28;20048;-65
2022/11/09 09:04:42;;;;;;;1.77;1.08;;;12.60;99.90;;;;;;5070212;28;20040;-65
2022/11/09 09:07:09;;;;;;;0.00;0.00;;;12.60;99.90;;;;;;5053176;28;20079;-65
2022/11/09 09:09:38;;;;;;;0.20;0.20;;;12.60;99.90;;;;;;5056333;28;20040;-64
2022/11/09 09:12:05;;;;;;;0.05;0.05;;;12.60;99.90;;;;;;5058306;28;20051;-65
2022/11/09 09:14:31;;;;;;;0.10;0.10;;;12.80;99.90;;;;;;5065632;28;20051;-65
2022/11/09 09:16:56;;;;;;;0.10;0.10;;;12.80;99.90;;;;;;5048926;28;20045;-65
2022/11/09 09:19:22;;;;;;;0.00;0.00;;;12.80;99.90;;;;;;5050658;28;20055;-65
2022/11/09 09:21:48;;;;;;;1.08;0.90;;;12.90;99.90;;;;;;5049722;28;20085;-65
2022/11/09 09:24:13;;;;;;;0.30;0.30;;;12.90;99.90;;;;;;5052650;28;20044;-65
2022/11/09 09:26:39;;;;;;;0.32;0.32;;;12.90;99.90;;;;;;5058442;28;20440;-65
2022/11/09 09:29:05;;;;;;;0.50;0.50;;;13.00;99.90;;;;;;5049753;28;20138;-64
2022/11/09 09:31:31;;;;;;;0.10;0.10;;;13.00;99.90;;;;;;5057813;28;20060;-65
2022/11/09 09:33:56;;;;;;;0.10;0.10;;;13.10;99.90;;;;;;5049574;28;20110;-66
2022/11/09 09:36:23;;;;;;;6.55;1.75;;;13.10;99.90;;;;;;5059723;28;20055;-65
2022/11/09 09:38:53;;;;;;;0.32;0.32;;;13.10;99.90;;;;;;5070365;28;20079;-65
2022/11/09 09:41:26;;;;;;;2.30;0.55;;;13.20;99.90;;;;;;5061065;28;20054;-64
2022/11/09 09:43:57;;;;;;;1.48;1.05;;;13.30;99.90;;;;;;5054150;28;20048;-65
2022/11/09 09:46:46;;;;;;;0.10;0.10;;;13.40;99.90;;;;;;5053602;28;20045;-64
2022/11/09 09:49:18;;;;;;;3.33;1.42;;;13.50;99.90;;;;;;5053174;28;20496;-65
2022/11/09 09:52:07;;;;;;;0.10;0.10;;;13.60;99.90;;;;;;5059689;28;20048;-64
2022/11/09 09:54:39;;;;;;;0.10;0.10;;;13.70;99.90;;;;;;5068877;28;20056;-65
2022/11/09 09:57:16;;;;;;;1.27;0.75;;;13.90;99.90;;;;;;5073177;28;20603;-64
2022/11/09 09:59:45;;;;;;;0.00;0.00;;;13.90;99.90;;;;;;5073582;28;20044;-64
2022/11/09 10:02:27;;;;;;;0.10;0.10;;;14.00;99.90;;;;;;5072654;28;20044;-65
2022/11/09 10:04:59;;;;;;;0.10;0.10;;;13.90;99.90;;;;;;5052753;28;20400;-65
2022/11/09 10:08:02;;;;;;;0.10;0.10;;;13.90;99.90;;;;;;5055098;28;20047;-64
2022/11/09 10:10:53;;;;;;;0.10;0.10;;;13.80;99.90;;;;;;5073683;28;20496;-64
2022/11/09 10:13:39;;;;;;;0.00;0.00;;;13.70;99.90;;;;;;5049684;28;20139;-65
2022/11/09 10:16:30;;;;;;;0.40;0.40;;;13.70;99.90;;;;;;5053107;28;20056;-64
2022/11/09 10:19:15;;;;;;;0.10;0.10;;;13.60;99.90;;;;;;5054174;28;20072;-65
2022/11/09 10:22:36;;;;;;;0.90;0.80;;;13.50;99.90;;;;;;5052879;28;20558;-65
2022/11/09 10:25:24;;;;;;;0.30;0.30;;;13.50;99.90;;;;;;5050334;28;20574;-65
2022/11/09 10:27:59;;;;;;;0.10;0.10;;;13.40;99.90;;;;;;5067519;28;20530;-64
2022/11/09 10:30:27;;;;;;;0.20;0.20;;;13.40;99.90;;;;;;5066578;28;20052;-65
2022/11/09 10:33:12;;;;;;;0.22;0.22;;;13.40;99.90;;;;;;5061940;28;20040;-64
2022/11/09 10:35:49;;;;;;;0.03;0.03;;;13.40;99.90;;;;;;5052548;28;20033;-65
2022/11/09 10:38:22;;;;;;;0.35;0.30;;;13.40;99.90;;;;;;5071798;28;20047;-65
2022/11/09 10:40:58;;;;;;;0.20;0.20;;;13.40;99.90;;;;;;5061729;28;20045;-65
2022/11/09 10:43:24;;;;;;;5.72;1.27;;;13.40;99.90;;;;;;5056974;28;20045;-65
2022/11/09 10:46:03;;;;;;;1.92;1.75;;;13.30;99.90;;;;;;5066103;28;20086;-65
2022/11/09 10:48:35;;;;;;;0.10;0.10;;;13.40;99.90;;;;;;5061102;28;20044;-65
2022/11/09 10:51:02;;;;;;;0.38;0.38;;;13.30;99.90;;;;;;5053490;28;20145;-65
2022/11/09 10:53:32;;;;;;;0.52;0.52;;;13.40;99.90;;;;;;5054292;28;20148;-66
2022/11/09 10:56:14;;;;;;;1.45;1.05;;;13.40;99.90;;;;;;5051340;28;20060;-65
2022/11/09 10:58:47;;;;;;;2.83;1.45;;;13.40;99.90;;;;;;5072872;28;20052;-65
2022/11/09 11:01:24;;;;;;;0.10;0.10;;;13.40;99.90;;;;;;5061513;28;20044;-65
2022/11/09 11:03:52;;;;;;;1.08;0.98;;;13.40;99.90;;;;;;5060497;28;20047;-65
2022/11/09 11:06:21;;;;;;;0.38;0.38;;;13.50;99.90;;;;;;5064415;28;20123;-65
2022/11/09 11:09:05;;;;;;;0.95;0.95;;;13.60;99.90;;;;;;5052721;28;20045;-65
2022/11/09 11:11:33;;;;;;;0.10;0.10;;;13.70;99.90;;;;;;5034495;28;20768;-65
2022/11/09 11:14:10;;;;;;;7.68;1.45;;;13.60;99.90;;;;;;5052678;28;20045;-65
2022/11/09 11:16:37;;;;;;;0.10;0.10;;;13.60;99.90;;;;;;5059152;28;20404;-65
2022/11/09 11:19:04;;;;;;;0.10;0.10;;;13.60;99.90;;;;;;5061618;28;20086;-66
2022/11/09 11:21:30;;;;;;;1.55;0.50;;;13.60;99.90;;;;;;5052190;28;20510;-65
2022/11/09 11:24:11;;;;;;;1.25;0.80;;;13.50;99.90;;;;;;5069695;28;20044;-66
2022/11/09 11:26:46;;;;;;;4.78;1.75;;;13.50;99.90;;;;;;5070492;28;20105;-65
2022/11/09 11:29:30;;;;;;;4.80;0.75;;;13.50;99.90;;;;;;5056650;28;20106;-65
2022/11/09 11:31:57;;;;;;;0.10;0.10;;;13.40;99.90;;;;;;5052201;28;20061;-65
2022/11/09 11:34:22;;;;;;;0.10;0.10;;;13.30;99.90;;;;;;5060537;28;20055;-65
2022/11/09 11:36:49;;;;;;;0.10;0.10;;;13.30;99.90;;;;;;5064081;28;20373;-65
2022/11/09 11:39:39;;;;;;;0.10;0.10;;;13.20;99.90;;;;;;5050675;28;20041;-65
2022/11/09 11:42:19;;;;;;;0.20;0.20;;;13.10;99.90;;;;;;5051449;28;20037;-65
2022/11/09 11:44:55;;;;;;;3.63;1.50;;;12.90;99.90;;;;;;5050367;28;20037;-65
2022/11/09 11:47:27;;;;;;;0.30;0.30;;;12.80;99.90;;;;;;5055827;28;20102;-66
2022/11/09 11:50:28;;;;;;;1.95;1.20;;;12.70;99.90;;;;;;5068496;28;20479;-65
2022/11/09 11:53:20;;;;;;;0.40;0.40;;;12.70;99.90;;;;;;5062664;28;20055;-65
2022/11/09 11:55:55;;;;;;;0.00;0.00;;;12.60;99.90;;;;;;5052412;28;20752;-66
2022/11/09 11:58:42;;;;;;;0.30;0.28;;;12.60;99.90;;;;;;5052260;28;20492;-66
2022/11/09 12:01:22;;;;;;;0.38;0.38;;;12.50;99.90;;;;;;5046557;28;20045;-65
2022/11/09 12:03:57;;;;;;;2.38;0.38;;;12.50;99.90;;;;;;5052549;28;20527;-66
2022/11/09 12:06:25;;;;;;;0.00;0.00;;;12.40;99.90;;;;;;5062988;28;20072;-66
2022/11/09 12:09:28;;;;;;;0.93;0.93;;;12.40;99.90;;;;;;5062546;28;20048;-66
2022/11/09 12:12:17;;;;;;;25.33;0.75;;;12.40;99.90;;;;;;5033350;28;20049;-65
2022/11/09 12:14:52;;;;;;;0.10;0.10;;;12.20;99.90;;;;;;5041057;28;20097;-66
2022/11/09 12:17:36;;;;;;;0.10;0.10;;;12.10;99.90;;;;;;5052426;28;20084;-66
2022/11/09 12:20:05;;;;;;;0.00;0.00;;;12.10;99.90;;;;;;5067546;28;20040;-66
2022/11/09 12:22:49;;;;;;;0.10;0.10;;;11.90;99.90;;;;;;5071136;28;20032;-66
2022/11/09 12:25:29;;;;;;;0.10;0.10;;;11.80;99.90;;;;;;5049463;28;20085;-67
2022/11/09 12:28:26;;;;;;;0.10;0.10;;;11.80;99.90;;;;;;5066866;28;20041;-66
2022/11/09 12:31:19;;;;;;;0.10;0.10;;;11.70;99.90;;;;;;5051081;28;20531;-66
2022/11/09 12:34:12;;;;;;;0.08;0.08;;;11.60;99.90;;;;;;5032304;28;20060;-66
2022/11/09 12:36:46;;;;;;;0.10;0.10;;;11.50;99.90;;;;;;5046734;28;20048;-66
2022/11/09 12:39:21;;;;;;;0.00;0.00;;;11.50;99.90;;;;;;5040953;28;20060;-66
2022/11/09 12:41:48;;;;;;;0.10;0.10;;;11.50;99.90;;;;;;5049730;28;20098;-66
2022/11/09 12:44:31;;;;;;;0.10;0.10;;;11.50;99.90;;;;;;5050103;28;20048;-66
2022/11/09 12:47:09;;;;;;;0.10;0.10;;;11.50;99.90;;;;;;5049489;28;20044;-66
2022/11/09 12:49:39;;;;;;;0.10;0.10;;;11.50;99.90;;;;;;5063513;28;20052;-66
2022/11/09 12:52:12;;;;;;;0.10;0.10;;;11.50;99.90;;;;;;5052567;28;20040;-66
2022/11/09 12:54:41;;;;;;;0.10;0.10;;;11.60;99.90;;;;;;5060074;28;20037;-65
2022/11/09 12:57:25;;;;;;;0.10;0.10;;;11.60;99.90;;;;;;5040403;28;20385;-66
2022/11/09 12:59:56;;;;;;;0.10;0.10;;;11.60;99.90;;;;;;5050741;28;20037;-66